sensor_id;sensor_type;location;lat;lon;timestamp;P1;durP1;ratioP1;P2;durP2;ratioP2
1531;SDS011;759;53.170;8.210;2022-08-18T00:01:53;29.45;;;19.50;;
1531;SDS011;759;53.170;8.210;2022-08-18T00:04:33;27.73;;;19.90;;
1531;SDS011;759;53.170;8.210;2022-08-18T00:07:08;24.20;;;18.60;;
1531;SDS011;759;53.170;8.210;2022-08-18T00:09:39;22.40;;;19.73;;
1531;SDS011;759;53.170;8.210;2022-08-18T00:12:13;27.57;;;17.93;;
1531;SDS011;759;53.170;8.210;2022-08-18T00:14:46;29.63;;;19.53;;
1531;SDS011;759;53.170;8.210;2022-08-18T00:17:12;21.63;;;18.20;;
1531;SDS011;759;53.170;8.210;2022-08-18T00:19:46;18.13;;;16.33;;
1531;SDS011;759;53.170;8.210;2022-08-18T00:22:23;22.63;;;16.00;;
1531;SDS011;759;53.170;8.210;2022-08-18T00:24:52;21.80;;;16.17;;
1531;SDS011;759;53.170;8.210;2022-08-18T00:27:29;18.57;;;14.93;;
1531;SDS011;759;53.170;8.210;2022-08-18T00:30:01;20.55;;;16.05;;
1531;SDS011;759;53.170;8.210;2022-08-18T00:32:57;28.05;;;15.15;;
1531;SDS011;759;53.170;8.210;2022-08-18T00:35:30;19.13;;;13.80;;
1531;SDS011;759;53.170;8.210;2022-08-18T00:37:58;23.17;;;14.67;;
1531;SDS011;759;53.170;8.210;2022-08-18T00:40:47;17.40;;;15.70;;
1531;SDS011;759;53.170;8.210;2022-08-18T00:43:22;18.67;;;14.60;;
1531;SDS011;759;53.170;8.210;2022-08-18T00:45:53;20.30;;;15.37;;
1531;SDS011;759;53.170;8.210;2022-08-18T00:48:22;21.13;;;15.23;;
1531;SDS011;759;53.170;8.210;2022-08-18T00:50:57;17.57;;;15.50;;
1531;SDS011;759;53.170;8.210;2022-08-18T00:53:42;19.90;;;14.57;;
1531;SDS011;759;53.170;8.210;2022-08-18T00:56:21;17.00;;;14.17;;
1531;SDS011;759;53.170;8.210;2022-08-18T00:59:06;26.07;;;14.70;;
1531;SDS011;759;53.170;8.210;2022-08-18T01:01:56;23.33;;;15.80;;
1531;SDS011;759;53.170;8.210;2022-08-18T01:04:29;21.20;;;15.73;;
1531;SDS011;759;53.170;8.210;2022-08-18T01:07:29;21.33;;;14.73;;
1531;SDS011;759;53.170;8.210;2022-08-18T01:09:57;21.10;;;15.23;;
1531;SDS011;759;53.170;8.210;2022-08-18T01:12:33;21.47;;;15.17;;
1531;SDS011;759;53.170;8.210;2022-08-18T01:15:08;24.67;;;16.27;;
1531;SDS011;759;53.170;8.210;2022-08-18T01:17:44;19.67;;;16.10;;
1531;SDS011;759;53.170;8.210;2022-08-18T01:20:32;22.23;;;15.07;;
1531;SDS011;759;53.170;8.210;2022-08-18T01:23:22;21.97;;;14.90;;
1531;SDS011;759;53.170;8.210;2022-08-18T01:25:51;25.23;;;14.63;;
1531;SDS011;759;53.170;8.210;2022-08-18T01:28:45;21.33;;;15.40;;
1531;SDS011;759;53.170;8.210;2022-08-18T01:34:21;23.50;;;13.65;;
1531;SDS011;759;53.170;8.210;2022-08-18T01:36:50;20.50;;;16.17;;
1531;SDS011;759;53.170;8.210;2022-08-18T01:39:22;22.30;;;14.50;;
1531;SDS011;759;53.170;8.210;2022-08-18T01:42:09;20.53;;;13.57;;
1531;SDS011;759;53.170;8.210;2022-08-18T01:44:41;20.53;;;12.73;;
1531;SDS011;759;53.170;8.210;2022-08-18T01:47:27;17.27;;;13.50;;
1531;SDS011;759;53.170;8.210;2022-08-18T01:50:04;25.43;;;13.37;;
1531;SDS011;759;53.170;8.210;2022-08-18T01:52:44;20.87;;;14.07;;
1531;SDS011;759;53.170;8.210;2022-08-18T01:55:14;18.37;;;15.33;;
1531;SDS011;759;53.170;8.210;2022-08-18T01:57:54;19.30;;;14.20;;
1531;SDS011;759;53.170;8.210;2022-08-18T02:00:29;28.27;;;15.40;;
1531;SDS011;759;53.170;8.210;2022-08-18T02:03:00;22.33;;;15.23;;
1531;SDS011;759;53.170;8.210;2022-08-18T02:05:36;17.03;;;12.33;;
1531;SDS011;759;53.170;8.210;2022-08-18T02:08:14;20.23;;;14.60;;
1531;SDS011;759;53.170;8.210;2022-08-18T02:10:47;16.60;;;13.60;;
1531;SDS011;759;53.170;8.210;2022-08-18T02:13:12;20.80;;;14.20;;
1531;SDS011;759;53.170;8.210;2022-08-18T02:15:44;19.53;;;13.43;;
1531;SDS011;759;53.170;8.210;2022-08-18T02:21:20;23.53;;;15.03;;
1531;SDS011;759;53.170;8.210;2022-08-18T02:23:48;23.30;;;13.67;;
1531;SDS011;759;53.170;8.210;2022-08-18T02:26:15;18.37;;;14.20;;
1531;SDS011;759;53.170;8.210;2022-08-18T02:28:50;22.77;;;13.97;;
1531;SDS011;759;53.170;8.210;2022-08-18T02:31:21;17.13;;;12.47;;
1531;SDS011;759;53.170;8.210;2022-08-18T02:33:48;18.43;;;13.17;;
1531;SDS011;759;53.170;8.210;2022-08-18T02:36:27;19.20;;;13.73;;
1531;SDS011;759;53.170;8.210;2022-08-18T02:38:55;16.20;;;12.67;;
1531;SDS011;759;53.170;8.210;2022-08-18T02:41:35;17.73;;;13.80;;
1531;SDS011;759;53.170;8.210;2022-08-18T02:44:12;22.63;;;13.70;;
1531;SDS011;759;53.170;8.210;2022-08-18T02:46:41;21.07;;;14.37;;
1531;SDS011;759;53.170;8.210;2022-08-18T02:49:25;22.23;;;13.80;;
1531;SDS011;759;53.170;8.210;2022-08-18T02:51:59;24.27;;;13.90;;
1531;SDS011;759;53.170;8.210;2022-08-18T02:54:40;21.93;;;15.07;;
1531;SDS011;759;53.170;8.210;2022-08-18T02:57:14;19.83;;;12.63;;
1531;SDS011;759;53.170;8.210;2022-08-18T03:02:36;15.93;;;13.00;;
1531;SDS011;759;53.170;8.210;2022-08-18T03:05:45;17.53;;;13.10;;
1531;SDS011;759;53.170;8.210;2022-08-18T03:08:21;24.33;;;14.87;;
1531;SDS011;759;53.170;8.210;2022-08-18T03:10:51;24.17;;;13.80;;
1531;SDS011;759;53.170;8.210;2022-08-18T03:13:22;21.33;;;15.57;;
1531;SDS011;759;53.170;8.210;2022-08-18T03:15:53;30.03;;;17.77;;
1531;SDS011;759;53.170;8.210;2022-08-18T03:18:22;29.45;;;20.55;;
1531;SDS011;759;53.170;8.210;2022-08-18T03:21:03;26.60;;;18.43;;
1531;SDS011;759;53.170;8.210;2022-08-18T03:23:41;27.67;;;19.93;;
1531;SDS011;759;53.170;8.210;2022-08-18T03:26:11;29.50;;;20.30;;
1531;SDS011;759;53.170;8.210;2022-08-18T03:28:50;30.73;;;20.00;;
1531;SDS011;759;53.170;8.210;2022-08-18T03:31:19;35.17;;;20.63;;
1531;SDS011;759;53.170;8.210;2022-08-18T03:34:17;31.00;;;20.30;;
1531;SDS011;759;53.170;8.210;2022-08-18T03:36:46;30.80;;;20.83;;
1531;SDS011;759;53.170;8.210;2022-08-18T03:39:27;34.57;;;19.10;;
1531;SDS011;759;53.170;8.210;2022-08-18T03:41:57;35.30;;;20.40;;
1531;SDS011;759;53.170;8.210;2022-08-18T03:44:33;37.50;;;21.17;;
1531;SDS011;759;53.170;8.210;2022-08-18T03:47:16;36.50;;;22.47;;
1531;SDS011;759;53.170;8.210;2022-08-18T03:49:51;35.60;;;22.40;;
1531;SDS011;759;53.170;8.210;2022-08-18T03:52:23;41.85;;;23.15;;
1531;SDS011;759;53.170;8.210;2022-08-18T03:55:01;42.33;;;23.97;;
1531;SDS011;759;53.170;8.210;2022-08-18T03:57:56;41.47;;;22.63;;
1531;SDS011;759;53.170;8.210;2022-08-18T04:00:37;32.97;;;22.40;;
1531;SDS011;759;53.170;8.210;2022-08-18T04:03:08;39.03;;;20.30;;
1531;SDS011;759;53.170;8.210;2022-08-18T04:05:49;29.40;;;20.43;;
1531;SDS011;759;53.170;8.210;2022-08-18T04:08:33;31.35;;;20.75;;
1531;SDS011;759;53.170;8.210;2022-08-18T04:11:15;26.57;;;18.90;;
1531;SDS011;759;53.170;8.210;2022-08-18T04:13:49;29.73;;;19.10;;
1531;SDS011;759;53.170;8.210;2022-08-18T04:16:20;29.10;;;18.47;;
1531;SDS011;759;53.170;8.210;2022-08-18T04:19:01;24.40;;;20.07;;
1531;SDS011;759;53.170;8.210;2022-08-18T04:21:33;32.67;;;20.53;;
1531;SDS011;759;53.170;8.210;2022-08-18T04:24:11;32.63;;;18.50;;
1531;SDS011;759;53.170;8.210;2022-08-18T04:26:44;34.33;;;18.13;;
1531;SDS011;759;53.170;8.210;2022-08-18T04:29:15;27.30;;;18.30;;
1531;SDS011;759;53.170;8.210;2022-08-18T04:31:59;32.23;;;19.87;;
1531;SDS011;759;53.170;8.210;2022-08-18T04:37:24;29.83;;;16.83;;
1531;SDS011;759;53.170;8.210;2022-08-18T04:39:50;39.20;;;18.43;;
1531;SDS011;759;53.170;8.210;2022-08-18T04:42:19;32.80;;;20.45;;
1531;SDS011;759;53.170;8.210;2022-08-18T04:44:49;33.03;;;18.67;;
1531;SDS011;759;53.170;8.210;2022-08-18T04:47:20;32.40;;;17.90;;
1531;SDS011;759;53.170;8.210;2022-08-18T04:49:55;27.93;;;16.10;;
1531;SDS011;759;53.170;8.210;2022-08-18T04:52:23;26.87;;;17.17;;
1531;SDS011;759;53.170;8.210;2022-08-18T04:55:09;27.73;;;15.90;;
1531;SDS011;759;53.170;8.210;2022-08-18T04:57:38;24.43;;;15.90;;
1531;SDS011;759;53.170;8.210;2022-08-18T05:00:09;22.70;;;15.50;;
1531;SDS011;759;53.170;8.210;2022-08-18T05:02:38;25.03;;;15.10;;
1531;SDS011;759;53.170;8.210;2022-08-18T05:08:00;24.90;;;15.00;;
1531;SDS011;759;53.170;8.210;2022-08-18T05:13:10;30.30;;;16.00;;
1531;SDS011;759;53.170;8.210;2022-08-18T05:15:59;26.77;;;15.43;;
1531;SDS011;759;53.170;8.210;2022-08-18T05:18:38;25.23;;;14.77;;
1531;SDS011;759;53.170;8.210;2022-08-18T05:21:34;21.07;;;14.70;;
1531;SDS011;759;53.170;8.210;2022-08-18T05:26:57;25.53;;;14.47;;
1531;SDS011;759;53.170;8.210;2022-08-18T05:29:39;29.47;;;15.70;;
1531;SDS011;759;53.170;8.210;2022-08-18T05:32:11;30.03;;;16.67;;
1531;SDS011;759;53.170;8.210;2022-08-18T05:34:46;20.57;;;15.10;;
1531;SDS011;759;53.170;8.210;2022-08-18T05:40:12;27.77;;;15.30;;
1531;SDS011;759;53.170;8.210;2022-08-18T05:42:53;24.77;;;16.30;;
1531;SDS011;759;53.170;8.210;2022-08-18T05:45:30;25.63;;;15.50;;
1531;SDS011;759;53.170;8.210;2022-08-18T05:48:25;25.67;;;16.17;;
1531;SDS011;759;53.170;8.210;2022-08-18T05:50:51;29.70;;;16.43;;
1531;SDS011;759;53.170;8.210;2022-08-18T05:53:18;24.23;;;14.50;;
1531;SDS011;759;53.170;8.210;2022-08-18T05:56:15;27.00;;;15.60;;
1531;SDS011;759;53.170;8.210;2022-08-18T05:59:08;23.63;;;16.87;;
1531;SDS011;759;53.170;8.210;2022-08-18T06:01:38;28.50;;;17.17;;
1531;SDS011;759;53.170;8.210;2022-08-18T06:04:28;35.23;;;16.93;;
1531;SDS011;759;53.170;8.210;2022-08-18T06:10:24;37.70;;;19.53;;
1531;SDS011;759;53.170;8.210;2022-08-18T06:13:08;39.07;;;19.97;;
1531;SDS011;759;53.170;8.210;2022-08-18T06:15:44;38.43;;;19.30;;
1531;SDS011;759;53.170;8.210;2022-08-18T06:21:45;49.97;;;21.50;;
1531;SDS011;759;53.170;8.210;2022-08-18T06:30:19;37.80;;;21.00;;
1531;SDS011;759;53.170;8.210;2022-08-18T06:35:45;42.70;;;22.80;;
1531;SDS011;759;53.170;8.210;2022-08-18T06:46:43;48.60;;;24.30;;
1531;SDS011;759;53.170;8.210;2022-08-18T06:55:01;28.43;;;19.50;;
1531;SDS011;759;53.170;8.210;2022-08-18T06:57:39;30.17;;;20.13;;
1531;SDS011;759;53.170;8.210;2022-08-18T07:00:25;23.97;;;17.90;;
1531;SDS011;759;53.170;8.210;2022-08-18T07:03:20;34.25;;;19.50;;
1531;SDS011;759;53.170;8.210;2022-08-18T07:06:31;27.00;;;18.63;;
1531;SDS011;759;53.170;8.210;2022-08-18T07:09:24;23.47;;;17.30;;
1531;SDS011;759;53.170;8.210;2022-08-18T07:12:06;26.65;;;17.55;;
1531;SDS011;759;53.170;8.210;2022-08-18T07:14:41;20.40;;;16.33;;
1531;SDS011;759;53.170;8.210;2022-08-18T07:17:12;23.27;;;18.40;;
1531;SDS011;759;53.170;8.210;2022-08-18T07:25:27;22.90;;;16.70;;
1531;SDS011;759;53.170;8.210;2022-08-18T07:30:34;26.37;;;18.30;;
1531;SDS011;759;53.170;8.210;2022-08-18T07:35:31;25.37;;;16.63;;
1531;SDS011;759;53.170;8.210;2022-08-18T07:38:14;23.63;;;15.30;;
1531;SDS011;759;53.170;8.210;2022-08-18T07:40:52;20.47;;;15.27;;
1531;SDS011;759;53.170;8.210;2022-08-18T07:43:39;21.00;;;15.67;;
1531;SDS011;759;53.170;8.210;2022-08-18T07:49:03;21.07;;;15.43;;
1531;SDS011;759;53.170;8.210;2022-08-18T08:07:45;19.23;;;12.87;;
1531;SDS011;759;53.170;8.210;2022-08-18T08:10:46;19.30;;;11.90;;
1531;SDS011;759;53.170;8.210;2022-08-18T08:16:21;12.53;;;11.30;;
1531;SDS011;759;53.170;8.210;2022-08-18T08:21:47;17.17;;;12.43;;
1531;SDS011;759;53.170;8.210;2022-08-18T08:27:29;15.13;;;10.93;;
1531;SDS011;759;53.170;8.210;2022-08-18T08:30:08;13.30;;;11.57;;
1531;SDS011;759;53.170;8.210;2022-08-18T08:32:44;17.67;;;10.87;;
1531;SDS011;759;53.170;8.210;2022-08-18T08:35:47;14.00;;;10.40;;
1531;SDS011;759;53.170;8.210;2022-08-18T08:38:31;13.70;;;9.60;;
1531;SDS011;759;53.170;8.210;2022-08-18T08:41:09;10.60;;;9.50;;
1531;SDS011;759;53.170;8.210;2022-08-18T08:43:41;14.03;;;10.57;;
1531;SDS011;759;53.170;8.210;2022-08-18T08:46:13;10.03;;;8.90;;
1531;SDS011;759;53.170;8.210;2022-08-18T08:48:47;13.67;;;9.90;;
1531;SDS011;759;53.170;8.210;2022-08-18T08:51:30;10.23;;;9.00;;
1531;SDS011;759;53.170;8.210;2022-08-18T08:54:13;13.50;;;9.80;;
1531;SDS011;759;53.170;8.210;2022-08-18T08:56:45;12.20;;;9.17;;
1531;SDS011;759;53.170;8.210;2022-08-18T08:59:14;14.53;;;9.30;;
1531;SDS011;759;53.170;8.210;2022-08-18T09:01:45;10.63;;;8.00;;
1531;SDS011;759;53.170;8.210;2022-08-18T09:12:19;8.40;;;6.67;;
1531;SDS011;759;53.170;8.210;2022-08-18T09:14:56;13.25;;;7.30;;
1531;SDS011;759;53.170;8.210;2022-08-18T09:23:08;8.10;;;6.60;;
1531;SDS011;759;53.170;8.210;2022-08-18T09:28:07;7.63;;;6.73;;
1531;SDS011;759;53.170;8.210;2022-08-18T09:38:57;6.20;;;5.70;;
1531;SDS011;759;53.170;8.210;2022-08-18T09:41:55;5.63;;;5.03;;
1531;SDS011;759;53.170;8.210;2022-08-18T09:47:05;6.93;;;5.97;;
1531;SDS011;759;53.170;8.210;2022-08-18T09:49:39;9.23;;;5.70;;
1531;SDS011;759;53.170;8.210;2022-08-18T09:57:23;6.97;;;6.27;;
1531;SDS011;759;53.170;8.210;2022-08-18T10:07:44;7.73;;;4.80;;
1531;SDS011;759;53.170;8.210;2022-08-18T10:10:34;5.77;;;5.30;;
1531;SDS011;759;53.170;8.210;2022-08-18T10:16:03;7.80;;;5.20;;
1531;SDS011;759;53.170;8.210;2022-08-18T10:34:39;4.47;;;4.03;;
1531;SDS011;759;53.170;8.210;2022-08-18T10:39:58;7.25;;;5.75;;
1531;SDS011;759;53.170;8.210;2022-08-18T10:42:30;6.13;;;5.30;;
1531;SDS011;759;53.170;8.210;2022-08-18T10:45:05;11.23;;;5.60;;
1531;SDS011;759;53.170;8.210;2022-08-18T10:47:32;6.50;;;4.90;;
1531;SDS011;759;53.170;8.210;2022-08-18T10:49:57;9.55;;;5.35;;
1531;SDS011;759;53.170;8.210;2022-08-18T10:52:42;8.50;;;6.40;;
1531;SDS011;759;53.170;8.210;2022-08-18T10:55:18;9.87;;;5.57;;
1531;SDS011;759;53.170;8.210;2022-08-18T11:06:23;5.90;;;5.40;;
1531;SDS011;759;53.170;8.210;2022-08-18T11:08:51;8.43;;;5.47;;
1531;SDS011;759;53.170;8.210;2022-08-18T11:11:20;9.77;;;5.73;;
1531;SDS011;759;53.170;8.210;2022-08-18T11:18:47;6.43;;;5.40;;
1531;SDS011;759;53.170;8.210;2022-08-18T11:22:00;11.20;;;5.20;;
1531;SDS011;759;53.170;8.210;2022-08-18T11:24:26;8.17;;;5.57;;
1531;SDS011;759;53.170;8.210;2022-08-18T11:31:55;10.60;;;5.70;;
1531;SDS011;759;53.170;8.210;2022-08-18T11:34:58;5.57;;;4.90;;
1531;SDS011;759;53.170;8.210;2022-08-18T11:42:54;6.57;;;5.17;;
1531;SDS011;759;53.170;8.210;2022-08-18T11:45:24;6.83;;;6.13;;
1531;SDS011;759;53.170;8.210;2022-08-18T11:56:04;10.30;;;6.70;;
1531;SDS011;759;53.170;8.210;2022-08-18T12:04:21;6.93;;;5.50;;
1531;SDS011;759;53.170;8.210;2022-08-18T12:06:56;10.10;;;6.20;;
1531;SDS011;759;53.170;8.210;2022-08-18T12:09:48;7.03;;;6.33;;
1531;SDS011;759;53.170;8.210;2022-08-18T12:12:43;9.05;;;6.35;;
1531;SDS011;759;53.170;8.210;2022-08-18T12:17:41;11.30;;;6.30;;
1531;SDS011;759;53.170;8.210;2022-08-18T12:20:08;7.13;;;5.30;;
1531;SDS011;759;53.170;8.210;2022-08-18T12:22:35;7.20;;;6.03;;
1531;SDS011;759;53.170;8.210;2022-08-18T12:25:07;8.03;;;6.10;;
1531;SDS011;759;53.170;8.210;2022-08-18T12:27:35;6.67;;;5.97;;
1531;SDS011;759;53.170;8.210;2022-08-18T12:30:02;8.03;;;5.27;;
1531;SDS011;759;53.170;8.210;2022-08-18T12:32:29;9.33;;;5.87;;
1531;SDS011;759;53.170;8.210;2022-08-18T12:34:57;7.43;;;6.03;;
1531;SDS011;759;53.170;8.210;2022-08-18T12:37:23;7.70;;;6.87;;
1531;SDS011;759;53.170;8.210;2022-08-18T12:39:50;8.23;;;6.50;;
1531;SDS011;759;53.170;8.210;2022-08-18T12:42:17;8.30;;;7.50;;
1531;SDS011;759;53.170;8.210;2022-08-18T12:44:43;11.97;;;6.63;;
1531;SDS011;759;53.170;8.210;2022-08-18T12:47:13;7.40;;;6.40;;
1531;SDS011;759;53.170;8.210;2022-08-18T12:49:41;8.00;;;7.00;;
1531;SDS011;759;53.170;8.210;2022-08-18T12:52:07;9.03;;;7.83;;
1531;SDS011;759;53.170;8.210;2022-08-18T12:54:33;7.60;;;6.40;;
1531;SDS011;759;53.170;8.210;2022-08-18T12:57:00;7.67;;;6.80;;
1531;SDS011;759;53.170;8.210;2022-08-18T12:59:26;8.13;;;5.67;;
1531;SDS011;759;53.170;8.210;2022-08-18T13:01:52;7.40;;;5.97;;
1531;SDS011;759;53.170;8.210;2022-08-18T13:04:17;6.20;;;5.60;;
1531;SDS011;759;53.170;8.210;2022-08-18T13:06:44;6.80;;;6.10;;
1531;SDS011;759;53.170;8.210;2022-08-18T13:09:11;8.13;;;5.67;;
1531;SDS011;759;53.170;8.210;2022-08-18T13:11:38;11.70;;;7.40;;
1531;SDS011;759;53.170;8.210;2022-08-18T13:14:03;9.80;;;6.57;;
1531;SDS011;759;53.170;8.210;2022-08-18T13:16:29;8.80;;;6.30;;
1531;SDS011;759;53.170;8.210;2022-08-18T13:18:58;9.13;;;5.70;;
1531;SDS011;759;53.170;8.210;2022-08-18T13:21:23;6.80;;;6.20;;
1531;SDS011;759;53.170;8.210;2022-08-18T13:23:49;9.67;;;7.63;;
1531;SDS011;759;53.170;8.210;2022-08-18T13:26:16;9.70;;;6.80;;
1531;SDS011;759;53.170;8.210;2022-08-18T13:28:48;7.07;;;6.17;;
1531;SDS011;759;53.170;8.210;2022-08-18T13:31:14;6.63;;;6.00;;
1531;SDS011;759;53.170;8.210;2022-08-18T13:33:40;8.40;;;6.17;;
1531;SDS011;759;53.170;8.210;2022-08-18T13:36:06;6.00;;;5.53;;
1531;SDS011;759;53.170;8.210;2022-08-18T13:38:32;8.27;;;5.40;;
1531;SDS011;759;53.170;8.210;2022-08-18T13:40:58;6.70;;;6.10;;
1531;SDS011;759;53.170;8.210;2022-08-18T13:43:41;7.03;;;5.07;;
1531;SDS011;759;53.170;8.210;2022-08-18T13:46:08;5.60;;;5.10;;
1531;SDS011;759;53.170;8.210;2022-08-18T13:48:36;6.40;;;5.37;;
1531;SDS011;759;53.170;8.210;2022-08-18T13:51:02;11.00;;;6.20;;
1531;SDS011;759;53.170;8.210;2022-08-18T13:53:29;6.23;;;5.40;;
1531;SDS011;759;53.170;8.210;2022-08-18T13:55:55;6.60;;;5.80;;
1531;SDS011;759;53.170;8.210;2022-08-18T13:58:22;6.93;;;5.80;;
1531;SDS011;759;53.170;8.210;2022-08-18T14:00:48;6.60;;;6.00;;
1531;SDS011;759;53.170;8.210;2022-08-18T14:03:18;6.00;;;5.40;;
1531;SDS011;759;53.170;8.210;2022-08-18T14:05:48;6.67;;;5.97;;
1531;SDS011;759;53.170;8.210;2022-08-18T14:08:14;5.20;;;4.70;;
1531;SDS011;759;53.170;8.210;2022-08-18T14:10:40;7.63;;;4.90;;
1531;SDS011;759;53.170;8.210;2022-08-18T14:13:05;6.97;;;5.63;;
1531;SDS011;759;53.170;8.210;2022-08-18T14:15:32;8.47;;;5.70;;
1531;SDS011;759;53.170;8.210;2022-08-18T14:18:02;10.55;;;5.80;;
1531;SDS011;759;53.170;8.210;2022-08-18T14:20:28;7.00;;;5.73;;
1531;SDS011;759;53.170;8.210;2022-08-18T14:23:12;8.37;;;4.93;;
1531;SDS011;759;53.170;8.210;2022-08-18T14:25:56;14.53;;;7.30;;
1531;SDS011;759;53.170;8.210;2022-08-18T14:28:40;8.67;;;5.57;;
1531;SDS011;759;53.170;8.210;2022-08-18T14:31:06;7.07;;;5.73;;
1531;SDS011;759;53.170;8.210;2022-08-18T14:33:32;6.90;;;5.97;;
1531;SDS011;759;53.170;8.210;2022-08-18T14:35:58;9.47;;;6.20;;
1531;SDS011;759;53.170;8.210;2022-08-18T14:38:24;15.30;;;6.87;;
1531;SDS011;759;53.170;8.210;2022-08-18T14:40:49;11.60;;;6.97;;
1531;SDS011;759;53.170;8.210;2022-08-18T14:43:16;7.90;;;6.30;;
1531;SDS011;759;53.170;8.210;2022-08-18T14:45:45;10.07;;;6.77;;
1531;SDS011;759;53.170;8.210;2022-08-18T14:48:14;11.87;;;5.60;;
1531;SDS011;759;53.170;8.210;2022-08-18T14:50:42;10.73;;;5.80;;
1531;SDS011;759;53.170;8.210;2022-08-18T14:53:13;9.43;;;5.93;;
1531;SDS011;759;53.170;8.210;2022-08-18T14:55:38;15.57;;;6.03;;
1531;SDS011;759;53.170;8.210;2022-08-18T14:58:04;7.87;;;6.07;;
1531;SDS011;759;53.170;8.210;2022-08-18T15:00:30;8.50;;;5.80;;
1531;SDS011;759;53.170;8.210;2022-08-18T15:02:55;11.23;;;5.90;;
1531;SDS011;759;53.170;8.210;2022-08-18T15:05:24;9.43;;;4.93;;
1531;SDS011;759;53.170;8.210;2022-08-18T15:07:55;9.20;;;5.13;;
1531;SDS011;759;53.170;8.210;2022-08-18T15:10:23;7.53;;;5.80;;
1531;SDS011;759;53.170;8.210;2022-08-18T15:12:48;11.87;;;6.47;;
1531;SDS011;759;53.170;8.210;2022-08-18T15:15:14;11.23;;;5.70;;
1531;SDS011;759;53.170;8.210;2022-08-18T15:17:40;9.83;;;6.40;;
1531;SDS011;759;53.170;8.210;2022-08-18T15:20:07;5.70;;;5.10;;
1531;SDS011;759;53.170;8.210;2022-08-18T15:22:38;6.00;;;4.53;;
1531;SDS011;759;53.170;8.210;2022-08-18T15:25:26;4.57;;;4.10;;
1531;SDS011;759;53.170;8.210;2022-08-18T15:28:09;8.95;;;5.30;;
1531;SDS011;759;53.170;8.210;2022-08-18T15:30:35;6.10;;;4.30;;
1531;SDS011;759;53.170;8.210;2022-08-18T15:33:02;8.87;;;5.50;;
1531;SDS011;759;53.170;8.210;2022-08-18T15:35:28;11.93;;;5.27;;
1531;SDS011;759;53.170;8.210;2022-08-18T15:37:54;7.00;;;4.67;;
1531;SDS011;759;53.170;8.210;2022-08-18T15:40:20;5.27;;;4.13;;
1531;SDS011;759;53.170;8.210;2022-08-18T15:42:51;8.43;;;4.63;;
1531;SDS011;759;53.170;8.210;2022-08-18T15:45:25;4.53;;;4.13;;
1531;SDS011;759;53.170;8.210;2022-08-18T15:47:56;8.20;;;4.83;;
1531;SDS011;759;53.170;8.210;2022-08-18T15:50:22;9.47;;;4.67;;
1531;SDS011;759;53.170;8.210;2022-08-18T15:52:49;4.80;;;4.40;;
1531;SDS011;759;53.170;8.210;2022-08-18T15:55:16;5.33;;;4.30;;
1531;SDS011;759;53.170;8.210;2022-08-18T15:57:43;5.93;;;4.10;;
1531;SDS011;759;53.170;8.210;2022-08-18T16:00:09;7.00;;;4.20;;
1531;SDS011;759;53.170;8.210;2022-08-18T16:02:36;4.47;;;4.17;;
1531;SDS011;759;53.170;8.210;2022-08-18T16:05:03;6.63;;;4.40;;
1531;SDS011;759;53.170;8.210;2022-08-18T16:07:30;4.50;;;4.10;;
1531;SDS011;759;53.170;8.210;2022-08-18T16:09:55;6.27;;;4.03;;
1531;SDS011;759;53.170;8.210;2022-08-18T16:12:20;4.83;;;3.90;;
1531;SDS011;759;53.170;8.210;2022-08-18T16:14:46;5.20;;;4.70;;
1531;SDS011;759;53.170;8.210;2022-08-18T16:17:12;4.73;;;3.87;;
1531;SDS011;759;53.170;8.210;2022-08-18T16:19:38;4.73;;;4.27;;
1531;SDS011;759;53.170;8.210;2022-08-18T16:22:03;6.40;;;4.27;;
1531;SDS011;759;53.170;8.210;2022-08-18T16:24:31;4.17;;;3.87;;
1531;SDS011;759;53.170;8.210;2022-08-18T16:26:57;4.27;;;3.87;;
1531;SDS011;759;53.170;8.210;2022-08-18T16:29:23;4.00;;;3.60;;
1531;SDS011;759;53.170;8.210;2022-08-18T16:31:48;3.73;;;3.43;;
1531;SDS011;759;53.170;8.210;2022-08-18T16:34:15;3.43;;;3.13;;
1531;SDS011;759;53.170;8.210;2022-08-18T16:36:40;3.90;;;3.43;;
1531;SDS011;759;53.170;8.210;2022-08-18T16:39:05;4.83;;;3.30;;
1531;SDS011;759;53.170;8.210;2022-08-18T16:41:31;6.10;;;3.10;;
1531;SDS011;759;53.170;8.210;2022-08-18T16:43:56;3.27;;;2.73;;
1531;SDS011;759;53.170;8.210;2022-08-18T16:46:22;3.17;;;2.87;;
1531;SDS011;759;53.170;8.210;2022-08-18T16:48:50;3.13;;;2.83;;
1531;SDS011;759;53.170;8.210;2022-08-18T16:51:16;5.63;;;2.50;;
1531;SDS011;759;53.170;8.210;2022-08-18T16:53:44;2.87;;;2.57;;
1531;SDS011;759;53.170;8.210;2022-08-18T16:56:15;5.93;;;4.33;;
1531;SDS011;759;53.170;8.210;2022-08-18T16:58:42;3.00;;;2.80;;
1531;SDS011;759;53.170;8.210;2022-08-18T17:01:27;3.90;;;2.70;;
1531;SDS011;759;53.170;8.210;2022-08-18T17:04:11;2.53;;;2.43;;
1531;SDS011;759;53.170;8.210;2022-08-18T17:06:42;3.23;;;3.03;;
1531;SDS011;759;53.170;8.210;2022-08-18T17:09:08;2.90;;;2.60;;
1531;SDS011;759;53.170;8.210;2022-08-18T17:11:34;3.47;;;3.17;;
1531;SDS011;759;53.170;8.210;2022-08-18T17:14:01;3.07;;;2.63;;
1531;SDS011;759;53.170;8.210;2022-08-18T17:16:28;5.83;;;3.90;;
1531;SDS011;759;53.170;8.210;2022-08-18T17:18:54;4.57;;;2.90;;
1531;SDS011;759;53.170;8.210;2022-08-18T17:21:22;3.25;;;2.90;;
1531;SDS011;759;53.170;8.210;2022-08-18T17:23:50;3.13;;;2.93;;
1531;SDS011;759;53.170;8.210;2022-08-18T17:29:13;3.20;;;2.50;;
1531;SDS011;759;53.170;8.210;2022-08-18T17:31:47;2.87;;;2.63;;
1531;SDS011;759;53.170;8.210;2022-08-18T17:34:17;3.20;;;2.90;;
1531;SDS011;759;53.170;8.210;2022-08-18T17:36:51;3.10;;;2.80;;
1531;SDS011;759;53.170;8.210;2022-08-18T17:39:22;3.00;;;2.70;;
1531;SDS011;759;53.170;8.210;2022-08-18T17:41:51;3.07;;;2.73;;
1531;SDS011;759;53.170;8.210;2022-08-18T17:44:36;3.20;;;3.00;;
1531;SDS011;759;53.170;8.210;2022-08-18T17:47:05;2.70;;;2.50;;
1531;SDS011;759;53.170;8.210;2022-08-18T17:52:22;3.67;;;3.10;;
1531;SDS011;759;53.170;8.210;2022-08-18T17:54:51;3.13;;;2.83;;
1531;SDS011;759;53.170;8.210;2022-08-18T17:57:27;3.43;;;2.40;;
1531;SDS011;759;53.170;8.210;2022-08-18T18:00:09;2.60;;;2.40;;
1531;SDS011;759;53.170;8.210;2022-08-18T18:02:41;4.43;;;3.23;;
1531;SDS011;759;53.170;8.210;2022-08-18T18:05:12;3.10;;;2.30;;
1531;SDS011;759;53.170;8.210;2022-08-18T18:10:13;2.90;;;2.70;;
1531;SDS011;759;53.170;8.210;2022-08-18T18:15:33;2.73;;;2.50;;
1531;SDS011;759;53.170;8.210;2022-08-18T18:18:24;3.90;;;3.13;;
1531;SDS011;759;53.170;8.210;2022-08-18T18:20:55;4.33;;;2.60;;
1531;SDS011;759;53.170;8.210;2022-08-18T18:23:31;3.60;;;2.63;;
1531;SDS011;759;53.170;8.210;2022-08-18T18:25:59;2.50;;;2.37;;
1531;SDS011;759;53.170;8.210;2022-08-18T18:28:44;4.37;;;2.53;;
1531;SDS011;759;53.170;8.210;2022-08-18T18:31:19;4.37;;;3.10;;
1531;SDS011;759;53.170;8.210;2022-08-18T18:33:54;3.10;;;2.80;;
1531;SDS011;759;53.170;8.210;2022-08-18T18:36:31;3.55;;;2.70;;
1531;SDS011;759;53.170;8.210;2022-08-18T18:39:13;2.93;;;2.47;;
1531;SDS011;759;53.170;8.210;2022-08-18T18:42:08;2.50;;;2.30;;
1531;SDS011;759;53.170;8.210;2022-08-18T18:47:48;3.93;;;2.80;;
1531;SDS011;759;53.170;8.210;2022-08-18T18:50:30;3.00;;;2.70;;
1531;SDS011;759;53.170;8.210;2022-08-18T18:59:04;5.93;;;2.97;;
1531;SDS011;759;53.170;8.210;2022-08-18T19:04:35;5.23;;;3.40;;
1531;SDS011;759;53.170;8.210;2022-08-18T19:09:46;5.07;;;2.60;;
1531;SDS011;759;53.170;8.210;2022-08-18T19:12:38;5.35;;;3.15;;
1531;SDS011;759;53.170;8.210;2022-08-18T19:15:14;2.93;;;2.73;;
1531;SDS011;759;53.170;8.210;2022-08-18T19:17:42;2.80;;;2.60;;
1531;SDS011;759;53.170;8.210;2022-08-18T19:20:19;3.20;;;3.00;;
1531;SDS011;759;53.170;8.210;2022-08-18T19:22:51;3.43;;;2.70;;
1531;SDS011;759;53.170;8.210;2022-08-18T19:25:32;5.43;;;3.50;;
1531;SDS011;759;53.170;8.210;2022-08-18T19:28:08;3.60;;;3.30;;
1531;SDS011;759;53.170;8.210;2022-08-18T19:30:41;4.70;;;3.20;;
1531;SDS011;759;53.170;8.210;2022-08-18T19:33:22;3.40;;;3.10;;
1531;SDS011;759;53.170;8.210;2022-08-18T19:36:04;6.47;;;3.37;;